Terminal Aerodrome Forecast
Issued by NWS

Home | Current Version | Previous Version | Text Only | Print | Product List | Glossary On
Versions: 1 2 3 4 5 6 7 8 9 10 11 12 13 14 15 16
000
FTUS46 KPDT 291726
TAFDLS
TAF
KDLS 291726Z 2918/3018 32009G18KT P6SM SCT070 BKN100
     FM292000 31014G24KT P6SM BKN080
     FM300300 30008KT P6SM BKN070
     FM301000 29006KT P6SM -RA BKN050 OVC070
     FM301400 VRB05KT P6SM SCT050 BKN080=

USA.gov is the U.S. government's official web portal to all federal, state and local government web resources and services.